Salem, Michigan
Current Conditions -  °F | °C
As of 2:53 AM on Tuesday 21 Oct 2014 (Local Time) from KYIP Reporting Station
Overcast Overcast  
Wind Chill: 11°   Ceiling: 2100
Heat Index: 11°   Visibility: 10mi
Dew Point:   Wind: 8mph
Humidity: 71%   Direction: 340°NNW
Pressure: 29.9"   Gusts: NA
Location:  42.41°N, 83.58°W
Report Text: KYIP 210653Z AUTO 34007KT 10SM BKN021 OVC028 11/06 A2990 RMK AO2 SLP123 T01110061 TSNO
Loading
Personal Weather Stations






























Interactive Weather Map
Tropical Storm Tracking
New forecast layout! Learn more

10-Day Weather Forecast

Advertisements
Track Severe Weather on mobile